createdAt,value
2023-01-30T00:01:24.770Z,20.00
2023-01-30T00:03:53.210Z,23.98
2023-01-30T00:06:21.221Z,24.80
2023-01-30T00:08:49.718Z,24.50
2023-01-30T00:11:19.611Z,17.73
2023-01-30T00:13:49.199Z,19.23
2023-01-30T00:16:19.812Z,19.30
2023-01-30T00:18:48.474Z,19.25
2023-01-30T00:21:18.456Z,19.23
2023-01-30T00:23:47.265Z,20.70
2023-01-30T00:26:15.936Z,19.40
2023-01-30T00:28:44.209Z,20.60
2023-01-30T00:31:12.865Z,18.65
2023-01-30T00:33:43.132Z,18.95
2023-01-30T00:36:11.918Z,27.30
2023-01-30T00:38:40.437Z,25.58
2023-01-30T00:41:10.921Z,23.73
2023-01-30T00:43:56.323Z,26.73
2023-01-30T00:46:45.528Z,29.33
2023-01-30T00:49:15.895Z,26.20
2023-01-30T00:51:44.337Z,19.88
2023-01-30T00:54:13.114Z,17.77
2023-01-30T00:56:41.264Z,19.30
2023-01-30T00:59:09.967Z,16.83
2023-01-30T01:01:38.981Z,19.20
2023-01-30T01:04:08.898Z,20.40
2023-01-30T01:06:38.888Z,17.15
2023-01-30T01:09:07.317Z,17.40
2023-01-30T01:11:35.702Z,21.98
2023-01-30T01:14:05.641Z,20.08
2023-01-30T01:16:36.515Z,17.35
2023-01-30T01:19:05.270Z,25.33
2023-01-30T01:21:33.841Z,17.95
2023-01-30T01:24:03.677Z,17.95
2023-01-30T01:26:32.827Z,22.80
2023-01-30T01:29:01.376Z,16.20
2023-01-30T01:31:30.032Z,20.65
2023-01-30T01:33:58.669Z,22.48
2023-01-30T01:36:53.209Z,19.15
2023-01-30T01:39:17.925Z,17.73
2023-01-30T01:41:45.541Z,21.13
2023-01-30T01:44:15.326Z,22.98
2023-01-30T01:46:45.071Z,20.40
2023-01-30T01:49:15.791Z,21.90
2023-01-30T01:51:48.130Z,21.13
2023-01-30T01:54:20.232Z,21.15
2023-01-30T01:56:49.060Z,16.67
2023-01-30T01:59:22.758Z,19.67
2023-01-30T02:01:51.554Z,22.35
2023-01-30T02:04:40.096Z,21.17
2023-01-30T02:07:09.203Z,18.80
2023-01-30T02:09:39.698Z,23.25
2023-01-30T02:12:08.079Z,22.95
2023-01-30T02:14:36.936Z,21.00
2023-01-30T02:17:05.272Z,20.42
2023-01-30T02:19:40.706Z,19.75
2023-01-30T02:22:17.376Z,24.90
2023-01-30T02:24:53.675Z,20.23
2023-01-30T02:27:37.393Z,26.25
2023-01-30T02:30:20.737Z,19.13
2023-01-30T02:32:53.504Z,22.23
2023-01-30T02:35:26.112Z,22.15
2023-01-30T02:38:00.099Z,22.25
2023-01-30T02:40:36.207Z,18.48
2023-01-30T02:43:09.201Z,20.97
2023-01-30T02:45:38.839Z,21.20
2023-01-30T02:48:11.404Z,23.13
2023-01-30T02:50:41.886Z,21.13
2023-01-30T02:53:10.437Z,18.50
2023-01-30T02:55:41.449Z,20.08
2023-01-30T02:58:10.277Z,17.83
2023-01-30T03:00:48.086Z,21.38
2023-01-30T03:03:32.258Z,20.85
2023-01-30T03:06:09.643Z,22.58
2023-01-30T03:08:41.734Z,21.38
2023-01-30T03:11:10.859Z,18.92
2023-01-30T03:13:44.399Z,21.55
2023-01-30T03:16:15.357Z,22.60
2023-01-30T03:18:46.499Z,22.10
2023-01-30T03:21:14.946Z,20.08
2023-01-30T03:23:43.426Z,19.63
2023-01-30T03:26:14.363Z,24.00
2023-01-30T03:28:42.829Z,19.52
2023-01-30T03:31:11.595Z,22.98
2023-01-30T03:33:40.168Z,18.02
2023-01-30T03:36:10.455Z,21.88
2023-01-30T03:38:38.761Z,21.33
2023-01-30T03:41:07.697Z,22.50
2023-01-30T03:43:36.285Z,22.08
2023-01-30T03:46:04.948Z,23.50
2023-01-30T03:48:33.393Z,19.20
2023-01-30T03:51:01.703Z,24.42
2023-01-30T03:53:31.549Z,20.73
2023-01-30T03:56:00.133Z,21.70
2023-01-30T03:58:28.296Z,24.45
2023-01-30T04:00:57.161Z,24.05
2023-01-30T04:03:25.944Z,18.90
2023-01-30T04:05:54.649Z,20.75
2023-01-30T04:08:23.160Z,23.60
2023-01-30T04:10:52.664Z,22.27
2023-01-30T04:13:21.281Z,23.05
2023-01-30T04:15:49.588Z,20.25
2023-01-30T04:18:18.211Z,22.95
2023-01-30T04:20:47.289Z,17.88
2023-01-30T04:23:15.938Z,18.17
2023-01-30T04:25:47.437Z,20.92
2023-01-30T04:28:17.435Z,17.50
2023-01-30T04:30:46.105Z,17.02
2023-01-30T04:33:14.396Z,19.35
2023-01-30T04:35:42.987Z,20.85
2023-01-30T04:38:11.042Z,21.88
2023-01-30T04:40:39.464Z,17.08
2023-01-30T04:43:08.816Z,17.25
2023-01-30T04:45:38.982Z,18.45
2023-01-30T04:48:07.318Z,17.10
2023-01-30T04:50:36.034Z,23.98
2023-01-30T04:53:05.388Z,24.90
2023-01-30T04:55:34.303Z,23.15
2023-01-30T04:58:02.397Z,23.17
2023-01-30T05:00:31.035Z,21.13
2023-01-30T05:03:01.354Z,24.02
2023-01-30T05:05:29.985Z,24.33
2023-01-30T05:08:02.652Z,25.50
2023-01-30T05:10:30.922Z,25.70
2023-01-30T05:13:02.979Z,25.90
2023-01-30T05:15:31.106Z,17.00
2023-01-30T05:18:01.106Z,20.60
2023-01-30T05:20:30.059Z,17.10
2023-01-30T05:22:58.661Z,20.38
2023-01-30T05:25:26.773Z,20.17
2023-01-30T05:27:57.348Z,18.40
2023-01-30T05:30:25.900Z,20.10
2023-01-30T05:32:54.107Z,21.58
2023-01-30T05:35:23.860Z,20.90
2023-01-30T05:37:52.673Z,22.92
2023-01-30T05:40:21.232Z,22.95
2023-01-30T05:42:50.191Z,21.65
2023-01-30T05:45:22.283Z,23.50
2023-01-30T05:47:53.599Z,23.83
2023-01-30T05:50:24.598Z,23.40
2023-01-30T05:52:54.214Z,18.95
2023-01-30T05:55:23.490Z,18.83
2023-01-30T05:57:52.176Z,24.83
2023-01-30T06:00:21.227Z,20.70
2023-01-30T06:02:53.289Z,22.35
2023-01-30T06:05:21.904Z,20.08
2023-01-30T06:07:52.082Z,16.67
2023-01-30T06:10:20.619Z,16.67
2023-01-30T06:12:49.027Z,29.25
2023-01-30T06:15:18.147Z,27.92
2023-01-30T06:17:46.844Z,17.67
2023-01-30T06:20:15.083Z,25.77
2023-01-30T06:22:43.663Z,28.15
2023-01-30T06:25:13.616Z,27.13
2023-01-30T06:27:43.412Z,23.83
2023-01-30T06:30:12.338Z,31.50
2023-01-30T06:32:41.619Z,28.15
2023-01-30T06:35:10.474Z,31.17
2023-01-30T06:37:39.055Z,29.60
2023-01-30T06:40:08.355Z,26.95
2023-01-30T06:42:38.817Z,40.83
2023-01-30T06:45:07.995Z,32.05
2023-01-30T06:47:36.604Z,25.13
2023-01-30T06:50:05.314Z,25.23
2023-01-30T06:52:33.896Z,21.63
2023-01-30T06:55:02.567Z,26.67
2023-01-30T06:57:30.754Z,30.63
2023-01-30T07:00:00.393Z,25.88
2023-01-30T07:02:30.539Z,29.23
2023-01-30T07:04:59.046Z,19.67
2023-01-30T07:07:27.365Z,21.27
2023-01-30T07:10:07.019Z,19.50
2023-01-30T07:12:37.031Z,24.70
2023-01-30T07:15:07.721Z,21.27
2023-01-30T07:17:35.976Z,23.05
2023-01-30T07:20:04.584Z,18.80
2023-01-30T07:22:33.161Z,21.00
2023-01-30T07:25:01.735Z,30.23
2023-01-30T07:27:30.627Z,23.83
2023-01-30T07:29:59.267Z,30.60
2023-01-30T07:32:30.201Z,28.55
2023-01-30T07:34:58.881Z,32.70
2023-01-30T07:37:27.399Z,34.33
2023-01-30T07:39:55.721Z,26.63
2023-01-30T07:42:24.338Z,27.42
2023-01-30T07:44:52.609Z,26.17
2023-01-30T07:47:21.214Z,26.00
2023-01-30T07:49:51.116Z,33.00
2023-01-30T07:52:19.385Z,32.63
2023-01-30T07:54:53.613Z,28.08
2023-01-30T07:57:22.226Z,21.83
2023-01-30T07:59:50.956Z,31.60
2023-01-30T08:02:19.585Z,29.38
2023-01-30T08:04:48.262Z,31.55
2023-01-30T08:07:18.933Z,26.25
2023-01-30T08:09:47.909Z,37.67
2023-01-30T08:12:16.529Z,32.85
2023-01-30T08:14:45.160Z,30.58
2023-01-30T08:17:13.357Z,33.47
2023-01-30T08:19:41.457Z,31.10
2023-01-30T08:22:10.031Z,32.95
2023-01-30T08:24:40.400Z,28.83
2023-01-30T08:27:08.931Z,25.13
2023-01-30T08:29:38.377Z,24.50
2023-01-30T08:32:06.729Z,22.73
2023-01-30T08:34:36.085Z,31.75
2023-01-30T08:37:04.708Z,31.33
2023-01-30T08:39:36.319Z,26.73
2023-01-30T08:42:06.960Z,26.25
2023-01-30T08:44:35.622Z,27.27
2023-01-30T08:47:04.275Z,27.73
2023-01-30T08:49:32.415Z,33.50
2023-01-30T08:52:00.990Z,26.08
2023-01-30T08:54:31.359Z,32.15
2023-01-30T08:57:00.995Z,30.95
2023-01-30T08:59:31.597Z,28.90
2023-01-30T09:02:00.132Z,29.58
2023-01-30T09:04:30.715Z,30.63
2023-01-30T09:06:58.833Z,32.33
2023-01-30T09:09:27.365Z,33.47
2023-01-30T09:12:02.502Z,30.60
2023-01-30T09:14:32.616Z,34.97
2023-01-30T09:17:00.793Z,31.27
2023-01-30T09:19:30.001Z,35.13
2023-01-30T09:21:58.407Z,28.48
2023-01-30T09:24:27.980Z,35.20
2023-01-30T09:26:57.680Z,31.27
2023-01-30T09:29:26.798Z,30.65
2023-01-30T09:31:57.826Z,35.45
2023-01-30T09:34:28.616Z,34.10
2023-01-30T09:36:56.943Z,28.70
2023-01-30T09:39:25.463Z,31.70
2023-01-30T09:41:58.915Z,37.55
2023-01-30T09:44:46.836Z,31.90
2023-01-30T09:47:19.588Z,30.10
2023-01-30T09:49:54.678Z,30.33
2023-01-30T09:52:28.703Z,31.52
2023-01-30T09:55:00.930Z,33.33
2023-01-30T09:57:29.830Z,37.25
2023-01-30T10:00:03.466Z,35.25
2023-01-30T10:02:41.098Z,41.60
2023-01-30T10:05:10.728Z,32.58
2023-01-30T10:07:43.549Z,32.30
2023-01-30T10:10:18.216Z,30.63
2023-01-30T10:12:52.786Z,31.15
2023-01-30T10:15:32.619Z,34.17
2023-01-30T10:18:12.478Z,31.30
2023-01-30T10:20:45.873Z,35.28
2023-01-30T10:23:22.443Z,34.20
2023-01-30T10:25:51.726Z,26.65
2023-01-30T10:28:22.503Z,32.28
2023-01-30T10:30:52.962Z,28.65
2023-01-30T10:33:26.206Z,31.88
2023-01-30T10:35:59.467Z,30.73
2023-01-30T10:38:30.389Z,32.45
2023-01-30T10:41:02.288Z,29.50
2023-01-30T10:43:33.221Z,29.88
2023-01-30T10:46:05.779Z,29.05
2023-01-30T10:48:58.347Z,31.00
2023-01-30T10:51:34.030Z,35.05
2023-01-30T10:54:05.029Z,30.02
2023-01-30T10:56:38.876Z,32.20
2023-01-30T10:59:12.056Z,31.77
2023-01-30T11:01:43.967Z,34.22
2023-01-30T11:04:16.442Z,35.15
2023-01-30T11:06:46.928Z,30.15
2023-01-30T11:09:15.542Z,32.58
2023-01-30T11:11:49.173Z,31.58
2023-01-30T11:14:17.763Z,30.27
2023-01-30T11:16:48.092Z,33.58
2023-01-30T11:19:21.224Z,31.15
2023-01-30T11:21:53.235Z,33.47
2023-01-30T11:24:22.468Z,36.92
2023-01-30T11:26:52.441Z,33.13
2023-01-30T11:29:28.745Z,30.80
2023-01-30T11:31:57.829Z,32.90
2023-01-30T11:34:26.501Z,31.20
2023-01-30T11:37:13.385Z,32.78
2023-01-30T11:39:49.669Z,24.95
2023-01-30T11:42:20.731Z,28.25
2023-01-30T11:44:51.964Z,30.05
2023-01-30T11:47:23.900Z,30.58
2023-01-30T11:50:08.729Z,28.35
2023-01-30T11:52:44.389Z,39.05
2023-01-30T11:55:15.369Z,35.03
2023-01-30T11:57:45.629Z,35.25
2023-01-30T12:00:18.492Z,36.88
2023-01-30T12:02:48.160Z,27.15
2023-01-30T12:05:23.819Z,29.65
2023-01-30T12:07:53.773Z,34.65
2023-01-30T12:10:31.371Z,32.35
2023-01-30T12:13:03.850Z,40.42
2023-01-30T12:15:33.332Z,34.17
2023-01-30T12:18:05.468Z,30.58
2023-01-30T12:20:48.311Z,36.55
2023-01-30T12:23:20.658Z,34.83
2023-01-30T12:25:53.842Z,37.88
2023-01-30T12:28:25.973Z,41.40
2023-01-30T12:30:56.713Z,35.75
2023-01-30T12:33:28.232Z,33.55
2023-01-30T12:36:10.751Z,42.47
2023-01-30T12:38:57.052Z,41.50
2023-01-30T12:41:34.836Z,34.38
2023-01-30T12:44:16.595Z,30.77
2023-01-30T12:46:50.617Z,36.03
2023-01-30T12:49:31.716Z,43.72
2023-01-30T12:52:11.734Z,44.33
2023-01-30T12:54:47.613Z,42.38
2023-01-30T12:57:19.817Z,35.60
2023-01-30T12:59:50.850Z,38.30
2023-01-30T13:02:29.025Z,25.48
2023-01-30T13:05:04.875Z,44.45
2023-01-30T13:07:40.009Z,41.10
2023-01-30T13:10:17.992Z,40.72
2023-01-30T13:12:50.583Z,33.28
2023-01-30T13:15:24.273Z,34.63
2023-01-30T13:18:01.881Z,48.08
2023-01-30T13:20:42.092Z,37.40
2023-01-30T13:23:13.504Z,37.42
2023-01-30T13:25:46.098Z,43.75
2023-01-30T13:28:17.226Z,34.35
2023-01-30T13:30:47.224Z,39.03
2023-01-30T13:33:17.525Z,37.25
2023-01-30T13:35:55.887Z,36.30
2023-01-30T13:38:27.031Z,43.72
2023-01-30T13:40:59.487Z,40.78
2023-01-30T13:43:32.290Z,42.10
2023-01-30T13:46:06.867Z,40.72
2023-01-30T13:48:42.261Z,42.25
2023-01-30T13:51:20.230Z,34.90
2023-01-30T13:53:50.105Z,36.42
2023-01-30T13:56:40.159Z,35.28
2023-01-30T13:59:17.322Z,36.17
2023-01-30T14:02:04.419Z,37.55
2023-01-30T14:04:47.516Z,32.38
2023-01-30T14:07:23.787Z,33.67
2023-01-30T14:10:06.831Z,37.42
2023-01-30T14:12:39.361Z,33.92
2023-01-30T14:15:24.314Z,33.22
2023-01-30T14:18:01.003Z,31.85
2023-01-30T14:20:30.662Z,40.63
2023-01-30T14:22:59.730Z,33.42
2023-01-30T14:25:35.379Z,34.00
2023-01-30T14:28:22.512Z,38.97
2023-01-30T14:30:53.029Z,39.92
2023-01-30T14:33:34.808Z,41.92
2023-01-30T14:36:21.713Z,37.22
2023-01-30T14:38:57.920Z,45.03
2023-01-30T14:41:28.043Z,39.42
2023-01-30T14:43:56.531Z,34.78
2023-01-30T14:46:54.405Z,35.20
2023-01-30T14:49:33.103Z,34.72
2023-01-30T14:52:02.678Z,35.42
2023-01-30T14:54:41.137Z,41.40
2023-01-30T14:57:27.732Z,38.55
2023-01-30T15:00:17.632Z,37.53
2023-01-30T15:02:52.273Z,35.08
2023-01-30T15:05:22.393Z,35.42
2023-01-30T15:07:51.965Z,35.88
2023-01-30T15:10:30.888Z,43.25
2023-01-30T15:13:15.396Z,41.78
2023-01-30T15:15:48.811Z,43.05
2023-01-30T15:18:30.090Z,35.80
2023-01-30T15:21:08.115Z,37.78
2023-01-30T15:23:57.175Z,36.90
2023-01-30T15:26:34.899Z,35.50
2023-01-30T15:29:24.226Z,39.28
2023-01-30T15:31:56.033Z,40.28
2023-01-30T15:34:28.324Z,40.47
2023-01-30T15:36:57.116Z,37.28
2023-01-30T15:39:26.108Z,39.65
2023-01-30T15:41:57.312Z,35.20
2023-01-30T15:44:33.995Z,36.08
2023-01-30T15:47:08.185Z,34.97
2023-01-30T15:49:44.497Z,32.28
2023-01-30T15:52:15.824Z,39.05
2023-01-30T15:54:50.080Z,34.38
2023-01-30T15:57:21.534Z,33.40
2023-01-30T15:59:50.112Z,31.77
2023-01-30T16:02:23.742Z,34.58
2023-01-30T16:05:04.917Z,31.98
2023-01-30T16:07:35.006Z,34.20
2023-01-30T16:10:08.202Z,44.83
2023-01-30T16:12:40.991Z,40.10
2023-01-30T16:15:19.728Z,36.38
2023-01-30T16:17:54.193Z,35.88
2023-01-30T16:20:24.508Z,40.17
2023-01-30T16:22:53.327Z,39.53
2023-01-30T16:25:23.181Z,39.67
2023-01-30T16:27:53.684Z,35.20
2023-01-30T16:30:23.361Z,35.47
2023-01-30T16:32:53.401Z,34.53
2023-01-30T16:35:31.041Z,33.03
2023-01-30T16:38:00.327Z,39.05
2023-01-30T16:40:31.007Z,35.70
2023-01-30T16:43:00.387Z,41.15
2023-01-30T16:46:02.204Z,38.83
2023-01-30T16:48:33.337Z,34.60
2023-01-30T16:51:16.706Z,37.63
2023-01-30T16:53:53.042Z,37.13
2023-01-30T16:56:22.132Z,41.38
2023-01-30T16:58:52.593Z,33.53
2023-01-30T17:01:24.368Z,41.63
2023-01-30T17:04:02.680Z,38.88
2023-01-30T17:06:36.235Z,40.25
2023-01-30T17:09:11.323Z,38.40
2023-01-30T17:11:42.650Z,41.13
2023-01-30T17:14:22.119Z,34.67
2023-01-30T17:17:03.781Z,42.00
2023-01-30T17:19:32.860Z,37.78
2023-01-30T17:22:09.541Z,30.58
2023-01-30T17:24:41.237Z,29.85
2023-01-30T17:27:15.804Z,32.03
2023-01-30T17:29:46.060Z,30.08
2023-01-30T17:32:17.233Z,27.27
2023-01-30T17:34:46.549Z,28.02
2023-01-30T17:37:21.501Z,34.30
2023-01-30T17:39:54.899Z,53.97
2023-01-30T17:42:25.468Z,43.15
2023-01-30T17:44:56.027Z,32.80
2023-01-30T17:47:26.757Z,34.63
2023-01-30T17:50:04.248Z,38.33
2023-01-30T17:52:33.545Z,38.47
2023-01-30T17:55:05.525Z,35.28
2023-01-30T17:57:36.464Z,35.40
2023-01-30T18:00:06.531Z,33.17
2023-01-30T18:02:35.938Z,35.70
2023-01-30T18:05:09.714Z,31.20
2023-01-30T18:07:39.115Z,38.47
2023-01-30T18:10:16.730Z,37.20
2023-01-30T18:12:47.487Z,37.13
2023-01-30T18:15:17.192Z,31.95
2023-01-30T18:17:52.227Z,30.95
2023-01-30T18:20:22.234Z,31.98
2023-01-30T18:22:58.796Z,31.10
2023-01-30T18:25:34.576Z,31.00
2023-01-30T18:28:04.522Z,35.25
2023-01-30T18:30:34.551Z,28.15
2023-01-30T18:33:09.013Z,32.40
2023-01-30T18:35:38.588Z,30.88
2023-01-30T18:38:08.064Z,30.10
2023-01-30T18:40:40.795Z,33.08
2023-01-30T18:43:09.559Z,31.52
2023-01-30T18:45:38.495Z,36.60
2023-01-30T18:48:07.665Z,30.08
2023-01-30T18:50:36.531Z,24.70
2023-01-30T18:53:05.222Z,22.73
2023-01-30T18:55:33.398Z,21.25
2023-01-30T18:58:03.717Z,26.45
2023-01-30T19:00:32.851Z,35.70
2023-01-30T19:03:01.806Z,30.13
2023-01-30T19:05:30.849Z,21.65
2023-01-30T19:08:00.328Z,25.92
2023-01-30T19:10:30.773Z,22.23
2023-01-30T19:13:17.257Z,19.17
2023-01-30T19:15:47.395Z,25.50
2023-01-30T19:18:16.794Z,27.77
2023-01-30T19:20:45.805Z,23.75
2023-01-30T19:23:15.531Z,27.75
2023-01-30T19:25:44.144Z,27.88
2023-01-30T19:28:14.328Z,23.52
2023-01-30T19:30:47.123Z,22.65
2023-01-30T19:33:17.770Z,38.70
2023-01-30T19:35:49.782Z,29.35
2023-01-30T19:38:18.959Z,26.52
2023-01-30T19:40:47.979Z,21.42
2023-01-30T19:43:17.760Z,25.80
2023-01-30T19:46:01.236Z,16.83
2023-01-30T19:48:32.367Z,20.67
2023-01-30T19:51:14.512Z,21.90
2023-01-30T19:53:45.427Z,21.08
2023-01-30T19:56:21.827Z,22.33
2023-01-30T19:58:51.890Z,20.60
2023-01-30T20:01:30.004Z,23.92
2023-01-30T20:04:03.326Z,23.08
2023-01-30T20:06:33.108Z,24.55
2023-01-30T20:09:02.718Z,13.40
2023-01-30T20:11:32.222Z,10.52
2023-01-30T20:14:01.443Z,16.58
2023-01-30T20:16:31.407Z,19.55
2023-01-30T20:19:02.572Z,14.25
2023-01-30T20:21:32.043Z,19.65
2023-01-30T20:24:01.327Z,21.63
2023-01-30T20:26:35.393Z,14.55
2023-01-30T20:29:05.036Z,17.50
2023-01-30T20:31:35.031Z,17.70
2023-01-30T20:34:06.281Z,18.90
2023-01-30T20:36:37.580Z,15.15
2023-01-30T20:39:07.727Z,16.23
2023-01-30T20:41:37.982Z,15.40
2023-01-30T20:44:07.317Z,15.05
2023-01-30T20:46:39.696Z,21.38
2023-01-30T20:49:12.899Z,17.13
2023-01-30T20:51:46.260Z,17.95
2023-01-30T20:54:16.000Z,15.95
2023-01-30T20:56:46.861Z,19.00
2023-01-30T20:59:19.037Z,13.68
2023-01-30T21:01:48.277Z,20.30
2023-01-30T21:04:20.357Z,15.70
2023-01-30T21:06:49.748Z,19.95
2023-01-30T21:09:18.923Z,16.40
2023-01-30T21:11:47.673Z,14.25
2023-01-30T21:14:16.984Z,17.77
2023-01-30T21:16:46.460Z,17.40
2023-01-30T21:19:16.558Z,19.77
2023-01-30T21:21:51.015Z,21.55
2023-01-30T21:24:23.932Z,21.67
2023-01-30T21:26:53.381Z,17.92
2023-01-30T21:29:22.659Z,19.15
2023-01-30T21:31:51.560Z,20.10
2023-01-30T21:34:20.112Z,18.60
2023-01-30T21:37:20.327Z,14.45
2023-01-30T21:40:06.222Z,22.90
2023-01-30T21:42:52.211Z,16.80
2023-01-30T21:45:22.540Z,16.83
2023-01-30T21:47:54.288Z,13.68
2023-01-30T21:50:23.435Z,17.67
2023-01-30T21:52:53.662Z,16.90
2023-01-30T21:55:22.129Z,15.10
2023-01-30T21:57:51.761Z,18.23
2023-01-30T22:00:20.242Z,15.85
2023-01-30T22:02:50.737Z,17.90
2023-01-30T22:05:19.139Z,14.88
2023-01-30T22:07:47.501Z,12.68
2023-01-30T22:10:20.789Z,12.48
2023-01-30T22:12:49.654Z,15.73
2023-01-30T22:15:20.802Z,14.30
2023-01-30T22:17:49.637Z,13.00
2023-01-30T22:20:18.201Z,16.05
2023-01-30T22:22:47.318Z,15.25
2023-01-30T22:25:15.894Z,13.63
2023-01-30T22:27:46.104Z,16.38
2023-01-30T22:30:14.475Z,12.57
2023-01-30T22:32:42.659Z,10.25
2023-01-30T22:35:11.170Z,11.93
2023-01-30T22:37:39.895Z,12.82
2023-01-30T22:40:08.887Z,8.63
2023-01-30T22:42:37.219Z,12.57
2023-01-30T22:45:07.780Z,10.05
2023-01-30T22:47:36.194Z,10.18
2023-01-30T22:50:05.697Z,10.50
2023-01-30T22:52:34.364Z,10.93
2023-01-30T22:55:02.752Z,7.53
2023-01-30T22:57:31.387Z,10.50
2023-01-30T23:00:00.077Z,11.55
2023-01-30T23:02:30.582Z,8.45
2023-01-30T23:04:59.957Z,8.95
2023-01-30T23:07:28.121Z,9.13
2023-01-30T23:09:56.280Z,11.65
2023-01-30T23:12:41.872Z,9.18
2023-01-30T23:15:10.724Z,10.77
2023-01-30T23:17:57.520Z,9.05
2023-01-30T23:22:54.461Z,10.35
2023-01-30T23:25:22.951Z,10.63
2023-01-30T23:27:51.932Z,8.52
2023-01-30T23:30:20.500Z,9.40
2023-01-30T23:32:50.291Z,9.18
2023-01-30T23:35:19.060Z,9.27
2023-01-30T23:38:04.975Z,12.13
2023-01-30T23:40:33.791Z,9.60
2023-01-30T23:43:02.488Z,11.20
2023-01-30T23:45:31.155Z,9.73
2023-01-30T23:48:01.589Z,9.68
2023-01-30T23:50:30.741Z,8.63
2023-01-30T23:52:59.629Z,9.32
2023-01-30T23:55:28.204Z,11.32
2023-01-30T23:57:56.870Z,11.13
